Terminal Aerodrome Forecast
Issued by NWS

Home | Current Version | Previous Version | Text Only | Print | Product List | Glossary On
Versions: 1 2 3 4 5 6 7 8 9 10 11 12 13 14 15 16
946
FTUS42 KMLB 021720
TAFLEE
TAF
KLEE 021720Z 0218/0318 02008KT P6SM SKC
     FM030000 04006KT P6SM SCT300
     FM031500 04009KT P6SM FEW030 SCT300=

USA.gov is the U.S. government's official web portal to all federal, state and local government web resources and services.